Time;durP1;ratioP1;P1;durP2;ratioP2;P2;SDS_P1;SDS_P2;PMS_P1;PMS_P2;Temp;Humidity;BMP_temperature;BMP_pressure;BME280_temperature;BME280_humidity;BME280_pressure;Samples;Min_cycle;Max_cycle;Signal;HPM_P1;HPM_P2
2021/05/06 00:29:38;;;;;;;10.60;2.22;;;8.60;74.80;;;;;;5071211;28;20153;-71
2021/05/06 00:33:50;;;;;;;5.95;1.92;;;8.60;75.00;;;;;;5088342;28;20028;-70
2021/05/06 00:36:16;;;;;;;8.82;1.90;;;8.60;74.70;;;;;;5078110;28;20149;-70
2021/05/06 00:41:34;;;;;;;7.13;1.80;;;8.70;74.90;;;;;;5071367;28;20150;-71
2021/05/06 01:05:06;;;;;;;6.55;2.00;;;8.70;74.60;;;;;;5061489;28;20025;-70
2021/05/06 01:10:12;;;;;;;5.75;1.67;;;8.60;75.00;;;;;;5061420;28;20138;-69
2021/05/06 01:12:40;;;;;;;10.25;1.80;;;8.60;75.00;;;;;;5074476;28;20057;-71
2021/05/06 01:15:06;;;;;;;7.45;1.90;;;8.60;75.40;;;;;;5051258;28;20037;-69
2021/05/06 01:17:32;;;;;;;10.45;2.10;;;8.60;75.20;;;;;;5080911;28;20021;-70
2021/05/06 01:19:57;;;;;;;6.30;1.95;;;8.60;75.00;;;;;;5071475;28;20094;-70
2021/05/06 01:22:23;;;;;;;8.35;1.73;;;8.50;74.70;;;;;;5081633;28;20062;-69
2021/05/06 01:24:55;;;;;;;10.05;1.90;;;8.60;74.60;;;;;;5045223;28;20047;-69
2021/05/06 01:27:33;;;;;;;8.00;1.90;;;8.50;74.20;;;;;;5082067;28;20021;-70
2021/05/06 01:30:27;;;;;;;7.85;2.03;;;8.50;74.10;;;;;;5053013;28;20171;-70
2021/05/06 01:32:49;;;;;;;6.97;2.00;;;8.50;74.00;;;;;;5067225;28;20029;-70
2021/05/06 01:35:25;;;;;;;7.35;1.75;;;8.50;74.30;;;;;;5070571;28;20520;-70
2021/05/06 01:43:23;;;;;;;5.32;1.75;;;8.50;73.70;;;;;;5075957;28;20063;-70
2021/05/06 01:59:45;;;;;;;4.93;1.67;;;8.40;73.40;;;;;;5082579;28;20044;-69
2021/05/06 02:02:10;;;;;;;7.07;1.90;;;8.40;73.30;;;;;;5070634;28;20461;-70
2021/05/06 02:04:35;;;;;;;9.15;1.67;;;8.40;73.20;;;;;;5058358;28;20057;-70
2021/05/06 02:07:01;;;;;;;6.95;2.10;;;8.30;73.10;;;;;;5068885;28;20027;-70
2021/05/06 02:09:27;;;;;;;9.85;1.83;;;8.30;73.20;;;;;;5086637;28;20029;-70
2021/05/06 02:11:52;;;;;;;6.15;1.70;;;8.30;73.30;;;;;;5086455;28;20040;-69
2021/05/06 02:14:18;;;;;;;7.80;1.77;;;8.30;73.30;;;;;;5060770;28;20020;-69
2021/05/06 02:16:43;;;;;;;7.25;1.75;;;8.30;73.30;;;;;;5071808;28;20078;-70
2021/05/06 02:19:09;;;;;;;7.40;2.17;;;8.30;73.50;;;;;;5061893;28;20017;-69
2021/05/06 02:21:34;;;;;;;6.97;1.75;;;8.30;73.40;;;;;;5053820;28;20025;-69
2021/05/06 02:24:01;;;;;;;3.25;1.50;;;8.30;73.60;;;;;;5074444;28;20024;-68
2021/05/06 02:26:27;;;;;;;7.15;2.28;;;8.30;73.70;;;;;;5071752;28;20364;-68
2021/05/06 02:28:53;;;;;;;13.38;3.20;;;8.30;73.90;;;;;;5071601;28;20051;-68
2021/05/06 02:31:18;;;;;;;6.88;1.95;;;8.30;73.80;;;;;;5061990;28;20024;-69
2021/05/06 02:33:45;;;;;;;7.07;1.98;;;8.20;73.80;;;;;;5080045;28;20201;-69
2021/05/06 02:36:11;;;;;;;8.55;1.60;;;8.20;74.10;;;;;;5081899;28;20040;-69
2021/05/06 02:38:37;;;;;;;7.60;1.92;;;8.20;74.30;;;;;;5061418;28;20067;-71
2021/05/06 02:41:03;;;;;;;6.78;1.98;;;8.20;74.60;;;;;;5083398;28;20024;-70
2021/05/06 02:43:29;;;;;;;4.32;1.60;;;8.20;74.80;;;;;;5062217;28;20074;-69
2021/05/06 02:45:54;;;;;;;7.30;1.80;;;8.20;75.00;;;;;;5060989;28;20385;-69
2021/05/06 02:48:20;;;;;;;5.93;1.75;;;8.20;74.90;;;;;;5068356;28;20028;-68
2021/05/06 02:50:51;;;;;;;7.47;1.80;;;8.20;75.10;;;;;;5053491;28;20111;-70
2021/05/06 02:53:19;;;;;;;5.25;2.38;;;8.20;75.10;;;;;;5061212;28;20024;-69
2021/05/06 02:58:42;;;;;;;8.70;2.10;;;8.20;75.40;;;;;;5071741;28;20082;-70
2021/05/06 03:03:50;;;;;;;9.57;2.20;;;8.20;75.70;;;;;;5072524;28;20082;-70
2021/05/06 03:06:21;;;;;;;7.05;2.22;;;8.20;75.70;;;;;;5073324;28;20091;-72
2021/05/06 03:08:50;;;;;;;4.53;1.75;;;8.10;75.80;;;;;;5073180;28;20428;-71
2021/05/06 03:11:32;;;;;;;8.20;2.00;;;8.10;75.70;;;;;;5073000;28;20027;-71
2021/05/06 03:14:27;;;;;;;9.73;2.13;;;8.10;76.00;;;;;;5068536;28;20028;-70
2021/05/06 03:25:09;;;;;;;7.10;2.00;;;8.00;75.60;;;;;;5063382;28;20028;-71
2021/05/06 03:27:38;;;;;;;8.52;1.85;;;8.10;75.90;;;;;;5080022;28;20055;-71
2021/05/06 03:32:59;;;;;;;12.02;2.10;;;8.00;76.20;;;;;;5065334;28;20075;-71
2021/05/06 03:46:40;;;;;;;6.75;2.10;;;8.00;76.70;;;;;;5092839;28;20081;-71
2021/05/06 03:49:27;;;;;;;5.28;2.25;;;8.00;76.90;;;;;;5073266;28;20036;-70
2021/05/06 04:16:35;;;;;;;9.90;2.65;;;7.80;78.60;;;;;;5077265;28;20048;-71
2021/05/06 04:27:09;;;;;;;6.72;2.17;;;7.90;79.00;;;;;;5092129;28;20063;-71
2021/05/06 04:37:11;;;;;;;6.80;2.30;;;7.90;78.70;;;;;;5071546;28;20389;-72
2021/05/06 04:39:46;;;;;;;6.10;1.90;;;7.90;78.50;;;;;;5069780;28;20020;-72
2021/05/06 04:42:35;;;;;;;10.25;3.15;;;7.90;78.50;;;;;;5051833;28;20436;-72
2021/05/06 04:45:28;;;;;;;7.35;2.22;;;7.90;78.50;;;;;;5070634;28;20028;-71
2021/05/06 04:55:54;;;;;;;7.32;2.50;;;8.00;78.10;;;;;;5068958;28;20526;-70
2021/05/06 05:04:02;;;;;;;9.88;2.28;;;8.00;77.60;;;;;;5076346;28;20081;-70
2021/05/06 05:06:38;;;;;;;7.72;2.38;;;8.10;77.40;;;;;;5085245;28;20637;-70
2021/05/06 05:09:38;;;;;;;6.75;2.10;;;8.10;77.20;;;;;;5052649;28;20119;-70
2021/05/06 05:12:07;;;;;;;3.92;2.08;;;8.10;77.00;;;;;;5070330;28;20481;-70
2021/05/06 05:20:16;;;;;;;5.83;1.90;;;8.20;76.50;;;;;;5051496;28;20059;-70
2021/05/06 05:23:25;;;;;;;8.07;2.38;;;8.20;76.30;;;;;;5044017;28;20477;-70
2021/05/06 05:25:41;;;;;;;6.63;2.22;;;8.20;76.20;;;;;;5050518;28;20047;-70
2021/05/06 05:28:08;;;;;;;8.75;2.15;;;8.30;76.10;;;;;;5065469;28;20473;-70
2021/05/06 05:30:37;;;;;;;5.13;1.73;;;8.30;75.90;;;;;;5064652;28;20032;-70
2021/05/06 05:33:15;;;;;;;7.10;2.45;;;8.40;75.80;;;;;;5071542;28;20032;-70
2021/05/06 05:56:37;;;;;;;7.68;3.25;;;9.00;74.00;;;;;;5074107;28;20103;-75
2021/05/06 05:59:03;;;;;;;7.22;2.20;;;9.10;73.20;;;;;;5073825;28;20035;-72
2021/05/06 06:01:29;;;;;;;10.23;2.40;;;9.10;72.90;;;;;;5074235;28;20055;-73
2021/05/06 06:03:55;;;;;;;4.28;1.85;;;9.20;72.50;;;;;;5064066;28;20040;-68
2021/05/06 06:06:21;;;;;;;4.95;2.03;;;9.30;72.00;;;;;;5086451;28;20031;-75
2021/05/06 06:08:48;;;;;;;6.10;2.45;;;9.40;71.50;;;;;;5063022;28;20016;-75
2021/05/06 06:11:13;;;;;;;3.72;2.08;;;9.40;70.90;;;;;;5094585;28;20115;-70
2021/05/06 06:13:40;;;;;;;9.45;2.42;;;9.50;70.40;;;;;;5087140;28;20099;-71
2021/05/06 06:16:12;;;;;;;6.53;2.30;;;9.60;69.80;;;;;;5082707;28;20105;-72
2021/05/06 06:21:14;;;;;;;5.93;2.20;;;9.90;69.60;;;;;;5075277;28;20047;-72
2021/05/06 06:23:40;;;;;;;6.45;1.95;;;10.00;69.10;;;;;;5061649;28;20047;-70
2021/05/06 06:26:06;;;;;;;8.60;1.90;;;10.10;68.70;;;;;;5086407;28;20025;-73
2021/05/06 06:28:38;;;;;;;7.75;2.00;;;10.20;68.20;;;;;;5059667;28;20026;-70
2021/05/06 06:31:10;;;;;;;7.47;1.70;;;10.30;67.70;;;;;;5087102;28;20028;-69
2021/05/06 06:33:36;;;;;;;7.50;1.63;;;10.40;66.80;;;;;;5066172;28;20036;-69
2021/05/06 06:36:01;;;;;;;7.75;2.38;;;10.40;66.50;;;;;;5072487;28;20025;-69
2021/05/06 06:38:27;;;;;;;5.05;1.83;;;10.40;66.10;;;;;;5077785;28;20073;-70
2021/05/06 06:40:52;;;;;;;4.30;1.70;;;10.40;65.80;;;;;;5077180;28;20032;-69
2021/05/06 06:43:18;;;;;;;6.85;2.15;;;10.40;65.20;;;;;;5079399;28;20107;-69
2021/05/06 06:45:43;;;;;;;6.57;1.92;;;10.40;64.50;;;;;;5054679;28;20056;-69
2021/05/06 06:48:11;;;;;;;7.68;2.03;;;10.50;64.70;;;;;;5074888;28;20059;-70
2021/05/06 06:50:36;;;;;;;6.65;2.00;;;10.50;64.40;;;;;;5085050;28;20060;-69
2021/05/06 06:53:02;;;;;;;6.70;2.10;;;10.60;64.30;;;;;;5058215;28;20052;-70
2021/05/06 06:55:27;;;;;;;5.97;2.00;;;10.60;63.70;;;;;;5072879;28;20044;-69
2021/05/06 06:57:53;;;;;;;5.38;2.00;;;10.70;63.50;;;;;;5071281;28;20016;-69
2021/05/06 07:00:19;;;;;;;9.77;2.10;;;10.70;63.70;;;;;;5076314;28;20033;-70
2021/05/06 07:02:44;;;;;;;5.75;2.00;;;10.80;63.80;;;;;;5070860;28;20512;-69
2021/05/06 07:05:10;;;;;;;5.93;1.83;;;10.90;63.10;;;;;;5069339;28;20046;-69
2021/05/06 07:07:36;;;;;;;8.93;2.63;;;11.10;63.00;;;;;;5066069;28;20040;-68
2021/05/06 07:10:02;;;;;;;5.07;1.90;;;11.20;61.80;;;;;;5072510;28;20033;-68
2021/05/06 07:12:27;;;;;;;6.88;2.08;;;11.30;60.80;;;;;;5066001;28;20032;-68
2021/05/06 07:14:53;;;;;;;5.20;1.63;;;11.40;60.00;;;;;;5071080;28;20024;-68
2021/05/06 07:17:18;;;;;;;5.63;2.33;;;11.40;59.90;;;;;;5070707;28;20145;-67
2021/05/06 07:19:44;;;;;;;5.65;1.90;;;11.50;58.50;;;;;;5074909;28;20035;-68
2021/05/06 07:22:10;;;;;;;5.97;1.80;;;11.60;58.00;;;;;;5069778;28;20053;-68
2021/05/06 07:24:35;;;;;;;8.70;2.00;;;11.60;57.70;;;;;;5057898;28;20025;-68
2021/05/06 07:27:01;;;;;;;7.10;2.20;;;11.70;57.70;;;;;;5071367;28;20013;-68
2021/05/06 07:29:26;;;;;;;7.90;1.80;;;11.70;57.60;;;;;;5070219;28;20025;-67
2021/05/06 07:31:53;;;;;;;7.35;2.30;;;11.80;58.00;;;;;;5055416;28;20033;-67
2021/05/06 07:34:19;;;;;;;8.57;2.03;;;11.90;57.90;;;;;;5065274;28;20033;-68
2021/05/06 07:36:44;;;;;;;5.40;1.85;;;12.00;57.00;;;;;;5072076;28;20032;-68
2021/05/06 07:39:10;;;;;;;7.03;1.95;;;12.10;55.70;;;;;;5078136;28;20078;-67
2021/05/06 07:41:36;;;;;;;5.28;1.90;;;12.10;55.90;;;;;;5067885;28;20024;-67
2021/05/06 07:44:01;;;;;;;3.92;2.08;;;12.20;56.00;;;;;;5056098;28;20418;-68
2021/05/06 07:46:27;;;;;;;8.73;1.80;;;12.30;55.60;;;;;;5054223;28;20365;-66
2021/05/06 07:48:54;;;;;;;4.90;1.77;;;12.40;56.10;;;;;;5072450;28;20077;-67
2021/05/06 07:51:20;;;;;;;2.47;1.52;;;12.40;56.00;;;;;;5072392;28;20021;-68
2021/05/06 07:53:50;;;;;;;8.93;2.17;;;12.50;55.70;;;;;;5071219;28;20386;-67
2021/05/06 07:56:17;;;;;;;6.03;1.75;;;12.60;55.70;;;;;;5072381;28;20056;-67
2021/05/06 07:58:43;;;;;;;7.43;2.40;;;12.70;55.70;;;;;;5051683;28;20020;-67
2021/05/06 08:01:09;;;;;;;5.68;1.38;;;12.90;54.90;;;;;;5047836;28;20107;-68
2021/05/06 08:03:35;;;;;;;4.70;1.98;;;12.90;54.40;;;;;;5072212;28;20087;-67
2021/05/06 08:06:01;;;;;;;4.35;1.80;;;13.10;53.90;;;;;;5069085;28;20032;-68
2021/05/06 08:08:27;;;;;;;5.95;1.90;;;13.10;53.30;;;;;;5071197;28;20063;-67
2021/05/06 08:10:56;;;;;;;6.38;1.75;;;13.20;52.90;;;;;;5071825;28;20028;-67
2021/05/06 08:13:22;;;;;;;5.45;1.45;;;13.30;52.40;;;;;;5071884;28;20056;-67
2021/05/06 08:15:50;;;;;;;6.07;2.05;;;13.30;52.10;;;;;;5070331;28;20090;-67
2021/05/06 08:18:15;;;;;;;4.05;1.63;;;13.40;51.40;;;;;;5053917;28;20078;-67
2021/05/06 08:20:41;;;;;;;4.30;1.90;;;13.40;51.00;;;;;;5052932;28;20032;-67
2021/05/06 08:23:09;;;;;;;4.68;1.80;;;13.40;50.20;;;;;;5071372;28;20032;-67
2021/05/06 08:25:36;;;;;;;6.70;1.65;;;13.30;50.00;;;;;;5071895;28;20060;-67
2021/05/06 08:28:02;;;;;;;7.82;1.80;;;13.30;50.10;;;;;;5053200;28;20016;-68
2021/05/06 08:30:47;;;;;;;3.58;1.70;;;13.20;50.30;;;;;;5071037;28;20051;-68
2021/05/06 08:33:13;;;;;;;5.68;1.52;;;13.30;50.60;;;;;;5071182;28;20036;-67
2021/05/06 08:35:39;;;;;;;6.03;1.92;;;13.30;50.20;;;;;;5071031;28;20040;-68
2021/05/06 08:38:05;;;;;;;3.95;1.77;;;13.40;50.20;;;;;;5064703;28;20037;-68
2021/05/06 08:40:30;;;;;;;6.13;2.00;;;13.40;50.10;;;;;;5050941;28;20397;-68
2021/05/06 08:42:58;;;;;;;4.05;1.60;;;13.50;50.30;;;;;;5073485;28;20480;-68
2021/05/06 08:45:26;;;;;;;4.53;1.48;;;13.50;50.10;;;;;;5066089;28;20034;-67
2021/05/06 08:47:52;;;;;;;3.88;1.67;;;13.60;50.00;;;;;;5070970;28;20025;-66
2021/05/06 08:50:19;;;;;;;6.72;2.08;;;13.60;49.90;;;;;;5070420;28;20028;-66
2021/05/06 08:52:48;;;;;;;4.25;1.75;;;13.60;49.80;;;;;;5070880;28;20030;-68
2021/05/06 08:55:13;;;;;;;4.50;1.67;;;13.60;49.70;;;;;;5069817;28;20509;-67
2021/05/06 08:57:39;;;;;;;5.97;2.05;;;13.60;49.60;;;;;;5061740;28;20116;-67
2021/05/06 09:00:05;;;;;;;8.45;3.13;;;13.60;49.70;;;;;;5054851;28;20048;-68
2021/05/06 09:02:31;;;;;;;7.28;2.97;;;13.60;49.80;;;;;;5071225;28;20405;-67
2021/05/06 09:05:03;;;;;;;5.50;3.10;;;13.60;50.00;;;;;;5070184;28;20035;-67
2021/05/06 09:07:31;;;;;;;5.60;2.80;;;13.70;50.10;;;;;;5049377;28;20086;-69
2021/05/06 09:09:57;;;;;;;8.52;3.42;;;13.80;50.90;;;;;;5058561;28;20027;-67
2021/05/06 09:12:37;;;;;;;8.13;3.00;;;13.90;50.60;;;;;;5075163;28;20123;-68
2021/05/06 09:15:15;;;;;;;9.05;3.35;;;13.90;50.90;;;;;;5055126;28;20040;-68
2021/05/06 09:17:42;;;;;;;5.57;2.65;;;14.00;51.60;;;;;;5056444;28;20036;-68
2021/05/06 09:20:20;;;;;;;7.55;2.50;;;14.00;51.30;;;;;;5056721;28;20021;-68
2021/05/06 09:22:48;;;;;;;6.03;2.80;;;14.10;51.00;;;;;;5075237;28;20115;-68
2021/05/06 09:25:33;;;;;;;4.93;2.20;;;14.20;50.40;;;;;;5073748;28;20059;-68
2021/05/06 09:28:01;;;;;;;5.70;2.70;;;14.20;50.00;;;;;;5072630;28;20040;-68
2021/05/06 09:30:27;;;;;;;6.70;3.53;;;14.30;50.30;;;;;;5062168;28;20021;-67
2021/05/06 09:33:00;;;;;;;5.45;3.03;;;14.20;50.40;;;;;;5073863;28;20036;-67
2021/05/06 09:35:26;;;;;;;9.73;4.38;;;14.20;50.40;;;;;;5074443;28;20493;-67
2021/05/06 09:37:52;;;;;;;10.57;3.92;;;14.20;50.60;;;;;;5074005;28;20036;-67
2021/05/06 09:40:18;;;;;;;7.03;3.83;;;14.20;50.70;;;;;;5074266;28;20035;-67
2021/05/06 09:42:49;;;;;;;7.95;3.70;;;14.20;51.00;;;;;;5074718;28;20104;-67
2021/05/06 09:45:23;;;;;;;8.82;3.53;;;14.10;51.20;;;;;;5082324;28;20103;-66
2021/05/06 09:48:12;;;;;;;6.70;3.42;;;14.00;51.90;;;;;;5072922;28;20098;-67
2021/05/06 09:50:39;;;;;;;7.45;3.53;;;14.10;52.00;;;;;;5079756;28;20030;-67
2021/05/06 09:53:13;;;;;;;6.70;3.83;;;14.10;52.40;;;;;;5068742;28;20032;-66
2021/05/06 09:55:40;;;;;;;7.13;3.70;;;14.30;52.20;;;;;;5064768;28;20040;-66
2021/05/06 09:58:18;;;;;;;6.53;3.10;;;14.40;51.80;;;;;;5078482;28;20024;-66
2021/05/06 10:00:45;;;;;;;9.10;3.42;;;14.40;51.40;;;;;;5072363;28;20121;-66
2021/05/06 10:03:13;;;;;;;5.70;2.67;;;14.40;51.00;;;;;;5074420;28;20034;-66
2021/05/06 10:05:40;;;;;;;8.95;3.42;;;14.40;51.10;;;;;;5074561;28;20031;-66
2021/05/06 10:08:06;;;;;;;5.63;3.08;;;14.50;50.60;;;;;;5074683;28;20025;-66
2021/05/06 10:10:33;;;;;;;6.82;3.20;;;14.50;51.00;;;;;;5073974;28;20040;-67
2021/05/06 10:13:00;;;;;;;7.00;3.15;;;14.60;50.80;;;;;;5067953;28;20047;-67
2021/05/06 10:15:26;;;;;;;6.75;2.85;;;14.60;50.70;;;;;;5065057;28;20040;-66
2021/05/06 10:17:53;;;;;;;6.47;3.13;;;14.70;50.50;;;;;;5074142;28;20104;-67
2021/05/06 10:20:22;;;;;;;5.95;3.35;;;14.60;50.40;;;;;;5072788;28;20415;-68
2021/05/06 10:22:48;;;;;;;7.70;3.20;;;14.60;50.30;;;;;;5072974;28;20021;-69
2021/05/06 10:25:13;;;;;;;6.10;3.05;;;14.50;50.80;;;;;;5055983;28;20044;-69
2021/05/06 10:27:40;;;;;;;7.05;3.45;;;14.40;50.40;;;;;;5055105;28;20028;-67
2021/05/06 10:30:07;;;;;;;8.38;2.75;;;14.40;50.20;;;;;;5055522;28;20028;-67
2021/05/06 10:32:34;;;;;;;5.28;2.88;;;14.30;50.20;;;;;;5073640;28;20021;-67
2021/05/06 10:35:07;;;;;;;5.93;3.38;;;14.30;50.60;;;;;;5053320;28;20052;-67
2021/05/06 10:37:37;;;;;;;6.60;3.30;;;14.20;51.30;;;;;;5072641;28;20485;-67
2021/05/06 10:40:23;;;;;;;9.68;3.42;;;14.10;52.00;;;;;;5071530;28;20029;-69
2021/05/06 10:42:50;;;;;;;5.20;3.30;;;14.00;52.80;;;;;;5055102;28;20068;-69
2021/05/06 10:45:16;;;;;;;4.55;2.83;;;13.90;53.50;;;;;;5070460;28;20028;-69
2021/05/06 10:47:46;;;;;;;7.70;3.25;;;13.70;55.40;;;;;;5070903;28;20032;-67
2021/05/06 10:50:17;;;;;;;7.47;3.65;;;13.60;57.40;;;;;;5052903;28;20032;-66
2021/05/06 10:52:50;;;;;;;9.40;4.57;;;13.50;58.50;;;;;;5054662;28;20362;-65
2021/05/06 10:55:40;;;;;;;10.55;4.32;;;13.30;59.90;;;;;;5073672;28;20085;-66
2021/05/06 10:58:22;;;;;;;8.75;5.05;;;13.30;61.70;;;;;;5054043;28;20083;-68
2021/05/06 11:01:13;;;;;;;8.68;4.63;;;13.30;62.40;;;;;;5071929;28;20496;-67
2021/05/06 11:03:40;;;;;;;8.48;4.85;;;13.40;63.80;;;;;;5072277;28;20370;-67
2021/05/06 11:06:07;;;;;;;6.60;4.60;;;13.40;65.00;;;;;;5053767;28;20067;-67
2021/05/06 11:08:35;;;;;;;8.75;4.50;;;13.50;66.30;;;;;;5059659;28;20029;-68
2021/05/06 11:11:00;;;;;;;8.18;4.70;;;13.60;67.50;;;;;;5072401;28;20032;-67
2021/05/06 11:13:28;;;;;;;8.70;5.25;;;13.60;67.40;;;;;;5072931;28;20103;-67
2021/05/06 11:16:15;;;;;;;7.22;4.75;;;13.70;67.50;;;;;;5071173;28;20469;-67
2021/05/06 11:18:47;;;;;;;6.95;4.88;;;13.70;67.10;;;;;;5071111;28;20036;-69
2021/05/06 11:21:31;;;;;;;8.63;4.55;;;13.80;67.50;;;;;;5071194;28;20051;-68
2021/05/06 11:24:17;;;;;;;7.55;4.43;;;13.80;67.60;;;;;;5067439;28;20082;-69
2021/05/06 11:27:07;;;;;;;;;;;13.80;68.00;;;;;;5070534;28;20055;-68
2021/05/06 11:29:36;;;;;;;6.78;4.82;;;13.80;67.20;;;;;;5071087;28;20396;-67
2021/05/06 11:32:01;;;;;;;5.25;4.32;;;13.70;68.50;;;;;;5069803;28;20796;-68
2021/05/06 11:34:36;;;;;;;7.82;4.88;;;13.60;68.80;;;;;;5070542;28;20029;-68
2021/05/06 11:37:15;;;;;;;6.82;5.57;;;13.60;69.10;;;;;;5053999;28;20032;-68
2021/05/06 11:39:52;;;;;;;6.13;4.80;;;13.60;68.80;;;;;;5072150;28;20024;-68
2021/05/06 11:42:19;;;;;;;6.07;4.68;;;13.50;68.80;;;;;;5072367;28;20024;-68
2021/05/06 11:45:07;;;;;;;6.00;4.90;;;13.60;69.60;;;;;;5062882;28;20525;-68
2021/05/06 11:47:33;;;;;;;6.18;5.00;;;13.60;69.40;;;;;;5076097;28;20469;-68
2021/05/06 11:49:58;;;;;;;6.93;4.68;;;13.60;68.70;;;;;;5070803;28;20028;-68
2021/05/06 11:52:33;;;;;;;6.32;4.80;;;13.60;68.70;;;;;;5065137;28;20036;-69
2021/05/06 11:54:59;;;;;;;8.82;4.75;;;13.60;68.40;;;;;;5069677;28;20036;-68
2021/05/06 11:57:26;;;;;;;5.22;4.57;;;13.70;68.90;;;;;;5048418;28;20047;-68
2021/05/06 11:59:52;;;;;;;8.35;5.20;;;13.70;68.90;;;;;;5081190;28;20040;-69
2021/05/06 12:02:23;;;;;;;7.85;5.00;;;13.70;67.90;;;;;;5075176;28;20069;-69
2021/05/06 12:04:52;;;;;;;7.15;4.68;;;13.80;67.20;;;;;;5082884;28;20054;-68
2021/05/06 12:07:21;;;;;;;7.20;4.93;;;13.90;66.10;;;;;;5061817;28;20033;-68
2021/05/06 12:09:47;;;;;;;9.57;5.05;;;13.90;65.90;;;;;;5051442;28;20485;-69
2021/05/06 12:12:24;;;;;;;5.30;4.20;;;13.90;65.70;;;;;;5071312;28;20025;-68
2021/05/06 12:14:49;;;;;;;6.78;4.07;;;14.00;65.20;;;;;;5060147;28;20028;-67
2021/05/06 12:17:19;;;;;;;5.78;4.53;;;13.90;64.60;;;;;;5071838;28;20078;-67
2021/05/06 12:19:46;;;;;;;4.70;4.03;;;13.90;64.30;;;;;;5047048;28;20416;-66
2021/05/06 12:22:13;;;;;;;6.97;4.85;;;14.00;64.20;;;;;;5070725;28;20427;-68
2021/05/06 12:24:48;;;;;;;5.07;4.45;;;14.00;63.80;;;;;;5079306;28;20388;-69
2021/05/06 12:27:27;;;;;;;5.30;4.47;;;14.00;63.50;;;;;;5067400;28;20051;-68
2021/05/06 12:29:56;;;;;;;6.95;5.03;;;14.00;63.60;;;;;;5081247;28;20044;-67
2021/05/06 12:32:26;;;;;;;6.05;4.97;;;13.90;64.00;;;;;;5064369;28;20436;-68
2021/05/06 12:34:54;;;;;;;9.60;4.47;;;14.00;64.10;;;;;;5077767;28;20447;-68
2021/05/06 12:37:23;;;;;;;8.40;4.65;;;14.00;64.10;;;;;;5070139;28;20024;-68
2021/05/06 12:39:48;;;;;;;7.20;4.80;;;14.00;63.70;;;;;;5067389;28;20044;-68
2021/05/06 12:42:15;;;;;;;6.85;5.38;;;14.00;63.80;;;;;;5069694;28;20043;-67
2021/05/06 12:44:49;;;;;;;8.15;5.05;;;13.90;64.30;;;;;;5049132;28;21983;-69
2021/05/06 12:47:19;;;;;;;;;;;13.90;65.30;;;;;;5091818;28;20020;-68
2021/05/06 12:49:49;;;;;;;6.43;4.22;;;13.80;65.40;;;;;;5059152;28;19912;-68
2021/05/06 12:52:33;;;;;;;6.85;5.03;;;13.70;65.40;;;;;;5051861;28;20029;-69
2021/05/06 12:55:01;;;;;;;6.85;4.85;;;13.70;65.60;;;;;;5084694;28;20085;-68
2021/05/06 12:57:28;;;;;;;5.63;4.10;;;13.80;65.80;;;;;;5069669;28;20044;-68
2021/05/06 12:59:54;;;;;;;6.78;4.82;;;13.80;66.10;;;;;;5054402;28;20055;-68
2021/05/06 13:02:20;;;;;;;6.90;4.35;;;13.90;66.10;;;;;;5062754;28;20419;-68
2021/05/06 13:04:50;;;;;;;6.45;4.47;;;13.90;65.50;;;;;;5070150;28;20020;-67
2021/05/06 13:07:16;;;;;;;4.75;4.13;;;13.90;64.50;;;;;;5060260;28;20060;-68
2021/05/06 13:09:49;;;;;;;7.47;4.65;;;14.00;63.70;;;;;;5062187;28;20017;-68
2021/05/06 13:12:26;;;;;;;7.75;3.83;;;14.00;63.60;;;;;;5042225;28;20029;-67
2021/05/06 13:14:59;;;;;;;5.60;3.60;;;14.00;63.20;;;;;;5065359;28;20044;-67
2021/05/06 13:17:43;;;;;;;6.28;3.30;;;14.00;63.10;;;;;;5070838;28;20044;-67
2021/05/06 13:20:28;;;;;;;4.63;3.65;;;13.90;62.60;;;;;;5070168;28;20047;-67
2021/05/06 13:23:04;;;;;;;;;;;14.00;62.30;;;;;;5059272;28;20568;-67
2021/05/06 13:25:50;;;;;;;4.95;3.40;;;14.00;62.20;;;;;;5068084;28;19908;-66
2021/05/06 13:28:39;;;;;;;5.03;3.10;;;14.00;61.40;;;;;;5050160;28;20035;-67
2021/05/06 13:31:22;;;;;;;6.32;3.83;;;14.10;61.30;;;;;;5066777;28;20032;-67
2021/05/06 13:34:07;;;;;;;6.43;3.83;;;14.10;60.90;;;;;;5062314;28;20039;-67
2021/05/06 13:36:32;;;;;;;5.90;3.15;;;14.00;60.20;;;;;;5059760;28;20068;-67
2021/05/06 13:39:04;;;;;;;4.80;2.90;;;14.10;60.00;;;;;;5066807;28;20671;-67
2021/05/06 13:41:32;;;;;;;5.78;3.85;;;14.10;59.90;;;;;;5067654;28;20059;-67
2021/05/06 13:43:59;;;;;;;4.80;3.00;;;14.20;59.40;;;;;;5068855;28;20033;-67
2021/05/06 13:46:27;;;;;;;5.43;3.08;;;14.20;59.20;;;;;;5065698;28;20114;-67
2021/05/06 13:48:53;;;;;;;4.65;2.63;;;14.30;58.80;;;;;;5052049;28;20040;-67
2021/05/06 13:51:21;;;;;;;5.07;2.55;;;14.40;58.50;;;;;;5073926;28;20481;-67
2021/05/06 13:53:47;;;;;;;3.00;2.25;;;14.50;58.10;;;;;;5066839;28;20385;-67
2021/05/06 13:56:13;;;;;;;4.65;2.70;;;14.70;57.80;;;;;;5067781;28;20051;-68
2021/05/06 13:58:39;;;;;;;3.72;2.60;;;15.00;57.30;;;;;;5056191;28;20503;-70
2021/05/06 14:01:06;;;;;;;4.05;2.70;;;15.10;56.30;;;;;;5060618;28;20138;-69
2021/05/06 14:03:33;;;;;;;3.28;2.70;;;15.10;55.20;;;;;;5073574;28;20024;-70
2021/05/06 14:05:59;;;;;;;3.97;2.70;;;15.10;55.10;;;;;;5089270;28;20047;-71
2021/05/06 14:08:25;;;;;;;4.28;3.03;;;15.20;54.90;;;;;;5065849;28;20037;-71
2021/05/06 14:10:52;;;;;;;3.40;2.60;;;15.20;54.60;;;;;;5077224;28;20119;-71
2021/05/06 14:13:17;;;;;;;3.38;2.22;;;15.20;53.80;;;;;;5074875;28;20016;-70
2021/05/06 14:15:46;;;;;;;3.83;2.72;;;15.30;53.80;;;;;;5073821;28;20504;-70
2021/05/06 14:18:12;;;;;;;3.33;2.28;;;15.40;52.50;;;;;;5074603;28;20050;-71
2021/05/06 14:20:38;;;;;;;4.47;2.30;;;15.60;52.60;;;;;;5076402;28;20127;-70
2021/05/06 14:23:05;;;;;;;2.90;2.30;;;15.80;52.10;;;;;;5067358;28;20047;-71
2021/05/06 14:25:34;;;;;;;4.18;2.60;;;15.80;51.90;;;;;;5060369;28;20024;-71
2021/05/06 14:28:02;;;;;;;4.43;2.42;;;15.90;51.60;;;;;;5073932;28;20024;-71
2021/05/06 14:30:27;;;;;;;3.65;2.35;;;16.00;50.40;;;;;;5045647;28;20067;-71
2021/05/06 14:32:53;;;;;;;3.33;2.30;;;16.20;50.30;;;;;;5054183;28;20048;-70
2021/05/06 14:35:18;;;;;;;3.00;2.20;;;16.30;49.90;;;;;;5072549;28;20456;-70
2021/05/06 14:37:44;;;;;;;3.97;2.10;;;16.40;49.40;;;;;;5070632;28;20025;-70
2021/05/06 14:40:10;;;;;;;3.42;2.35;;;16.40;48.80;;;;;;5086025;28;20233;-70
2021/05/06 14:42:36;;;;;;;3.20;2.10;;;16.50;48.10;;;;;;5063548;28;20020;-71
2021/05/06 14:45:02;;;;;;;3.72;2.00;;;16.30;47.70;;;;;;5082873;28;20035;-71
2021/05/06 14:47:28;;;;;;;2.72;1.98;;;16.50;47.90;;;;;;5073320;28;20111;-72
2021/05/06 14:49:53;;;;;;;2.92;1.95;;;16.60;46.50;;;;;;5053179;28;20107;-71
2021/05/06 14:52:19;;;;;;;3.38;2.10;;;16.70;46.50;;;;;;5052587;28;20059;-70
2021/05/06 14:54:46;;;;;;;2.70;2.00;;;16.80;46.10;;;;;;5078281;28;20029;-71
2021/05/06 14:57:12;;;;;;;3.17;1.90;;;16.90;45.90;;;;;;5071942;28;20519;-70
2021/05/06 14:59:38;;;;;;;3.20;2.22;;;17.20;46.20;;;;;;5068133;28;20064;-70
2021/05/06 15:02:03;;;;;;;3.08;2.10;;;17.30;45.70;;;;;;5071816;28;20089;-70
2021/05/06 15:04:29;;;;;;;3.17;2.17;;;17.40;45.70;;;;;;5072201;28;20016;-71
2021/05/06 15:06:55;;;;;;;2.80;1.92;;;17.40;44.90;;;;;;5069561;28;20040;-71
2021/05/06 15:09:22;;;;;;;3.83;2.05;;;17.60;44.80;;;;;;5081796;28;20492;-71
2021/05/06 15:11:48;;;;;;;4.18;2.42;;;17.70;44.70;;;;;;5085034;28;20054;-71
2021/05/06 15:14:14;;;;;;;2.60;2.13;;;17.60;44.10;;;;;;5076455;28;20039;-70
2021/05/06 15:16:40;;;;;;;5.07;2.78;;;17.60;44.20;;;;;;5066953;28;20044;-70
2021/05/06 15:19:05;;;;;;;3.17;2.40;;;17.50;44.40;;;;;;5068122;28;20102;-70
2021/05/06 15:21:30;;;;;;;4.47;2.38;;;17.50;44.70;;;;;;5075380;28;20111;-69
2021/05/06 15:23:56;;;;;;;3.05;2.53;;;17.50;44.60;;;;;;5053262;28;20060;-72
2021/05/06 15:26:21;;;;;;;2.80;2.25;;;17.50;44.70;;;;;;5050505;28;20039;-71
2021/05/06 15:28:47;;;;;;;2.40;2.00;;;17.40;44.20;;;;;;5070815;28;20031;-71
2021/05/06 15:31:12;;;;;;;4.28;2.53;;;17.50;44.70;;;;;;5073382;28;20484;-71
2021/05/06 15:33:38;;;;;;;3.67;2.22;;;17.40;44.10;;;;;;5071608;28;20020;-71
2021/05/06 15:36:04;;;;;;;2.90;2.28;;;17.40;44.10;;;;;;5072556;28;20037;-71
2021/05/06 15:38:30;;;;;;;4.38;2.17;;;17.30;44.00;;;;;;5070271;28;20051;-72
2021/05/06 15:40:55;;;;;;;3.83;2.58;;;17.20;44.10;;;;;;5068351;28;20043;-69
2021/05/06 15:43:21;;;;;;;3.35;2.58;;;17.10;43.70;;;;;;5070102;28;20032;-69
2021/05/06 15:45:47;;;;;;;3.53;2.50;;;16.90;43.80;;;;;;5068894;28;20020;-68
2021/05/06 15:48:14;;;;;;;3.58;2.50;;;16.70;44.20;;;;;;5055340;28;20024;-68
2021/05/06 15:50:40;;;;;;;3.80;2.05;;;16.90;44.40;;;;;;5071737;28;20482;-68
2021/05/06 15:53:06;;;;;;;3.50;2.55;;;17.00;45.50;;;;;;5072885;28;20594;-68
2021/05/06 15:55:33;;;;;;;3.15;2.40;;;17.30;46.80;;;;;;5080533;28;20044;-69
2021/05/06 15:58:01;;;;;;;4.68;2.42;;;17.40;47.30;;;;;;5071563;28;20149;-69
2021/05/06 16:00:27;;;;;;;3.35;2.28;;;17.60;46.70;;;;;;5081647;28;20143;-70
2021/05/06 16:02:58;;;;;;;3.50;2.05;;;17.80;44.90;;;;;;5068701;28;20099;-69
2021/05/06 16:05:25;;;;;;;3.30;2.08;;;17.70;44.00;;;;;;5051536;28;20032;-69
2021/05/06 16:07:51;;;;;;;3.60;2.28;;;17.60;43.20;;;;;;5058444;28;20501;-68